sensor_id;sensor_type;location;lat;lon;timestamp;P1;durP1;ratioP1;P2;durP2;ratioP2
15704;SDS011;7952;48.396;12.806;2023-11-19T00:00:31;0.33;;;0.33;;
15704;SDS011;7952;48.396;12.806;2023-11-19T00:02:57;0.20;;;0.20;;
15704;SDS011;7952;48.396;12.806;2023-11-19T00:05:22;0.40;;;0.40;;
15704;SDS011;7952;48.396;12.806;2023-11-19T00:07:48;0.20;;;0.20;;
15704;SDS011;7952;48.396;12.806;2023-11-19T00:10:15;0.20;;;0.20;;
15704;SDS011;7952;48.396;12.806;2023-11-19T00:12:46;0.30;;;0.30;;
15704;SDS011;7952;48.396;12.806;2023-11-19T00:15:13;0.10;;;0.10;;
15704;SDS011;7952;48.396;12.806;2023-11-19T00:17:39;0.10;;;0.10;;
15704;SDS011;7952;48.396;12.806;2023-11-19T00:20:07;0.30;;;0.30;;
15704;SDS011;7952;48.396;12.806;2023-11-19T00:22:33;0.20;;;0.20;;
15704;SDS011;7952;48.396;12.806;2023-11-19T00:24:59;0.20;;;0.20;;
15704;SDS011;7952;48.396;12.806;2023-11-19T00:27:25;0.30;;;0.30;;
15704;SDS011;7952;48.396;12.806;2023-11-19T00:29:51;0.50;;;0.50;;
15704;SDS011;7952;48.396;12.806;2023-11-19T00:32:17;0.30;;;0.30;;
15704;SDS011;7952;48.396;12.806;2023-11-19T00:34:45;0.37;;;0.37;;
15704;SDS011;7952;48.396;12.806;2023-11-19T00:37:13;0.33;;;0.33;;
15704;SDS011;7952;48.396;12.806;2023-11-19T00:39:40;0.30;;;0.30;;
15704;SDS011;7952;48.396;12.806;2023-11-19T00:42:09;0.20;;;0.20;;
15704;SDS011;7952;48.396;12.806;2023-11-19T00:44:35;0.10;;;0.10;;
15704;SDS011;7952;48.396;12.806;2023-11-19T00:47:01;0.27;;;0.27;;
15704;SDS011;7952;48.396;12.806;2023-11-19T00:49:27;0.30;;;0.30;;
15704;SDS011;7952;48.396;12.806;2023-11-19T00:51:53;0.20;;;0.20;;
15704;SDS011;7952;48.396;12.806;2023-11-19T00:54:19;0.23;;;0.23;;
15704;SDS011;7952;48.396;12.806;2023-11-19T00:56:45;0.20;;;0.20;;
15704;SDS011;7952;48.396;12.806;2023-11-19T00:59:10;0.20;;;0.20;;
15704;SDS011;7952;48.396;12.806;2023-11-19T01:01:36;0.20;;;0.20;;
15704;SDS011;7952;48.396;12.806;2023-11-19T01:04:02;0.27;;;0.27;;
15704;SDS011;7952;48.396;12.806;2023-11-19T01:06:31;0.30;;;0.30;;
15704;SDS011;7952;48.396;12.806;2023-11-19T01:08:57;0.20;;;0.20;;
15704;SDS011;7952;48.396;12.806;2023-11-19T01:11:24;0.40;;;0.40;;
15704;SDS011;7952;48.396;12.806;2023-11-19T01:13:50;0.20;;;0.20;;
15704;SDS011;7952;48.396;12.806;2023-11-19T01:16:17;0.50;;;0.50;;
15704;SDS011;7952;48.396;12.806;2023-11-19T01:18:44;0.30;;;0.30;;
15704;SDS011;7952;48.396;12.806;2023-11-19T01:21:12;0.20;;;0.20;;
15704;SDS011;7952;48.396;12.806;2023-11-19T01:23:39;0.20;;;0.20;;
15704;SDS011;7952;48.396;12.806;2023-11-19T01:26:08;0.20;;;0.20;;
15704;SDS011;7952;48.396;12.806;2023-11-19T01:28:35;0.20;;;0.20;;
15704;SDS011;7952;48.396;12.806;2023-11-19T01:31:01;0.30;;;0.30;;
15704;SDS011;7952;48.396;12.806;2023-11-19T01:33:28;0.40;;;0.40;;
15704;SDS011;7952;48.396;12.806;2023-11-19T01:35:54;0.40;;;0.40;;
15704;SDS011;7952;48.396;12.806;2023-11-19T01:38:23;0.30;;;0.30;;
15704;SDS011;7952;48.396;12.806;2023-11-19T01:40:49;0.30;;;0.30;;
15704;SDS011;7952;48.396;12.806;2023-11-19T01:43:34;0.40;;;0.40;;
15704;SDS011;7952;48.396;12.806;2023-11-19T01:46:02;0.20;;;0.20;;
15704;SDS011;7952;48.396;12.806;2023-11-19T01:48:35;0.20;;;0.20;;
15704;SDS011;7952;48.396;12.806;2023-11-19T01:51:05;0.20;;;0.20;;
15704;SDS011;7952;48.396;12.806;2023-11-19T01:53:33;0.20;;;0.20;;
15704;SDS011;7952;48.396;12.806;2023-11-19T01:56:01;0.47;;;0.47;;
15704;SDS011;7952;48.396;12.806;2023-11-19T01:58:29;0.20;;;0.20;;
15704;SDS011;7952;48.396;12.806;2023-11-19T02:00:55;0.20;;;0.20;;
15704;SDS011;7952;48.396;12.806;2023-11-19T02:03:22;0.30;;;0.30;;
15704;SDS011;7952;48.396;12.806;2023-11-19T02:05:50;0.20;;;0.20;;
15704;SDS011;7952;48.396;12.806;2023-11-19T02:08:18;0.40;;;0.40;;
15704;SDS011;7952;48.396;12.806;2023-11-19T02:10:44;0.20;;;0.20;;
15704;SDS011;7952;48.396;12.806;2023-11-19T02:13:10;0.20;;;0.20;;
15704;SDS011;7952;48.396;12.806;2023-11-19T02:15:38;0.20;;;0.20;;
15704;SDS011;7952;48.396;12.806;2023-11-19T02:18:18;0.30;;;0.30;;
15704;SDS011;7952;48.396;12.806;2023-11-19T02:20:48;0.20;;;0.20;;
15704;SDS011;7952;48.396;12.806;2023-11-19T02:23:15;2.30;;;0.40;;
15704;SDS011;7952;48.396;12.806;2023-11-19T02:25:41;0.13;;;0.13;;
15704;SDS011;7952;48.396;12.806;2023-11-19T02:28:11;0.30;;;0.30;;
15704;SDS011;7952;48.396;12.806;2023-11-19T02:30:37;0.30;;;0.30;;
15704;SDS011;7952;48.396;12.806;2023-11-19T02:33:03;0.20;;;0.20;;
15704;SDS011;7952;48.396;12.806;2023-11-19T02:35:33;0.30;;;0.30;;
15704;SDS011;7952;48.396;12.806;2023-11-19T02:37:59;0.30;;;0.30;;
15704;SDS011;7952;48.396;12.806;2023-11-19T02:40:32;0.27;;;0.27;;
15704;SDS011;7952;48.396;12.806;2023-11-19T02:42:57;0.30;;;0.30;;
15704;SDS011;7952;48.396;12.806;2023-11-19T02:45:23;0.20;;;0.20;;
15704;SDS011;7952;48.396;12.806;2023-11-19T02:47:50;0.10;;;0.10;;
15704;SDS011;7952;48.396;12.806;2023-11-19T02:50:17;0.23;;;0.23;;
15704;SDS011;7952;48.396;12.806;2023-11-19T02:52:50;0.20;;;0.20;;
15704;SDS011;7952;48.396;12.806;2023-11-19T02:55:18;0.17;;;0.17;;
15704;SDS011;7952;48.396;12.806;2023-11-19T02:57:44;0.20;;;0.20;;
15704;SDS011;7952;48.396;12.806;2023-11-19T03:00:17;0.20;;;0.20;;
15704;SDS011;7952;48.396;12.806;2023-11-19T03:02:53;0.20;;;0.20;;
15704;SDS011;7952;48.396;12.806;2023-11-19T03:05:25;0.30;;;0.30;;
15704;SDS011;7952;48.396;12.806;2023-11-19T03:07:52;0.20;;;0.20;;
15704;SDS011;7952;48.396;12.806;2023-11-19T03:10:18;0.10;;;0.10;;
15704;SDS011;7952;48.396;12.806;2023-11-19T03:12:44;0.10;;;0.10;;
15704;SDS011;7952;48.396;12.806;2023-11-19T03:15:13;0.33;;;0.33;;
15704;SDS011;7952;48.396;12.806;2023-11-19T03:17:39;0.10;;;0.10;;
15704;SDS011;7952;48.396;12.806;2023-11-19T03:20:06;0.20;;;0.20;;
15704;SDS011;7952;48.396;12.806;2023-11-19T03:22:40;0.20;;;0.20;;
15704;SDS011;7952;48.396;12.806;2023-11-19T03:25:11;0.20;;;0.20;;
15704;SDS011;7952;48.396;12.806;2023-11-19T03:27:38;0.30;;;0.30;;
15704;SDS011;7952;48.396;12.806;2023-11-19T03:30:05;0.30;;;0.30;;
15704;SDS011;7952;48.396;12.806;2023-11-19T03:32:32;0.40;;;0.40;;
15704;SDS011;7952;48.396;12.806;2023-11-19T03:34:59;0.30;;;0.30;;
15704;SDS011;7952;48.396;12.806;2023-11-19T03:37:28;0.30;;;0.30;;
15704;SDS011;7952;48.396;12.806;2023-11-19T03:39:54;0.17;;;0.17;;
15704;SDS011;7952;48.396;12.806;2023-11-19T03:42:22;0.27;;;0.27;;
15704;SDS011;7952;48.396;12.806;2023-11-19T03:44:48;0.20;;;0.20;;
15704;SDS011;7952;48.396;12.806;2023-11-19T03:47:15;0.20;;;0.20;;
15704;SDS011;7952;48.396;12.806;2023-11-19T03:49:40;0.40;;;0.40;;
15704;SDS011;7952;48.396;12.806;2023-11-19T03:52:06;0.40;;;0.40;;
15704;SDS011;7952;48.396;12.806;2023-11-19T03:54:34;0.40;;;0.40;;
15704;SDS011;7952;48.396;12.806;2023-11-19T03:57:00;0.20;;;0.20;;
15704;SDS011;7952;48.396;12.806;2023-11-19T03:59:28;0.30;;;0.30;;
15704;SDS011;7952;48.396;12.806;2023-11-19T04:01:54;0.30;;;0.30;;
15704;SDS011;7952;48.396;12.806;2023-11-19T04:04:21;0.30;;;0.30;;
15704;SDS011;7952;48.396;12.806;2023-11-19T04:06:47;0.40;;;0.40;;
15704;SDS011;7952;48.396;12.806;2023-11-19T04:09:13;0.40;;;0.40;;
15704;SDS011;7952;48.396;12.806;2023-11-19T04:11:39;0.40;;;0.40;;
15704;SDS011;7952;48.396;12.806;2023-11-19T04:14:05;0.20;;;0.20;;
15704;SDS011;7952;48.396;12.806;2023-11-19T04:16:31;0.30;;;0.30;;
15704;SDS011;7952;48.396;12.806;2023-11-19T04:18:56;0.20;;;0.20;;
15704;SDS011;7952;48.396;12.806;2023-11-19T04:21:22;0.20;;;0.20;;
15704;SDS011;7952;48.396;12.806;2023-11-19T04:23:48;0.40;;;0.40;;
15704;SDS011;7952;48.396;12.806;2023-11-19T04:26:14;0.10;;;0.10;;
15704;SDS011;7952;48.396;12.806;2023-11-19T04:28:40;0.30;;;0.30;;
15704;SDS011;7952;48.396;12.806;2023-11-19T04:31:06;0.23;;;0.23;;
15704;SDS011;7952;48.396;12.806;2023-11-19T04:33:34;0.30;;;0.30;;
15704;SDS011;7952;48.396;12.806;2023-11-19T04:35:59;0.40;;;0.40;;
15704;SDS011;7952;48.396;12.806;2023-11-19T04:38:25;0.30;;;0.30;;
15704;SDS011;7952;48.396;12.806;2023-11-19T04:40:52;0.20;;;0.20;;
15704;SDS011;7952;48.396;12.806;2023-11-19T04:43:17;0.20;;;0.20;;
15704;SDS011;7952;48.396;12.806;2023-11-19T04:45:45;0.27;;;0.27;;
15704;SDS011;7952;48.396;12.806;2023-11-19T04:48:11;0.20;;;0.20;;
15704;SDS011;7952;48.396;12.806;2023-11-19T04:50:37;0.30;;;0.30;;
15704;SDS011;7952;48.396;12.806;2023-11-19T04:53:03;0.30;;;0.30;;
15704;SDS011;7952;48.396;12.806;2023-11-19T04:55:29;0.30;;;0.30;;
15704;SDS011;7952;48.396;12.806;2023-11-19T04:57:55;0.10;;;0.10;;
15704;SDS011;7952;48.396;12.806;2023-11-19T05:00:21;0.20;;;0.20;;
15704;SDS011;7952;48.396;12.806;2023-11-19T05:02:46;0.20;;;0.20;;
15704;SDS011;7952;48.396;12.806;2023-11-19T05:05:12;0.20;;;0.20;;
15704;SDS011;7952;48.396;12.806;2023-11-19T05:07:38;0.40;;;0.40;;
15704;SDS011;7952;48.396;12.806;2023-11-19T05:10:04;0.23;;;0.23;;
15704;SDS011;7952;48.396;12.806;2023-11-19T05:12:31;0.20;;;0.20;;
15704;SDS011;7952;48.396;12.806;2023-11-19T05:14:56;0.20;;;0.20;;
15704;SDS011;7952;48.396;12.806;2023-11-19T05:17:23;0.20;;;0.20;;
15704;SDS011;7952;48.396;12.806;2023-11-19T05:19:49;0.30;;;0.30;;
15704;SDS011;7952;48.396;12.806;2023-11-19T05:22:14;0.30;;;0.30;;
15704;SDS011;7952;48.396;12.806;2023-11-19T05:24:40;0.30;;;0.30;;
15704;SDS011;7952;48.396;12.806;2023-11-19T05:27:06;0.13;;;0.13;;
15704;SDS011;7952;48.396;12.806;2023-11-19T05:29:33;0.30;;;0.30;;
15704;SDS011;7952;48.396;12.806;2023-11-19T05:31:58;0.30;;;0.30;;
15704;SDS011;7952;48.396;12.806;2023-11-19T05:34:24;0.20;;;0.20;;
15704;SDS011;7952;48.396;12.806;2023-11-19T05:36:50;0.30;;;0.30;;
15704;SDS011;7952;48.396;12.806;2023-11-19T05:39:16;0.20;;;0.20;;
15704;SDS011;7952;48.396;12.806;2023-11-19T05:41:43;0.30;;;0.30;;
15704;SDS011;7952;48.396;12.806;2023-11-19T05:44:09;0.20;;;0.20;;
15704;SDS011;7952;48.396;12.806;2023-11-19T05:46:35;0.30;;;0.30;;
15704;SDS011;7952;48.396;12.806;2023-11-19T05:49:05;0.20;;;0.20;;
15704;SDS011;7952;48.396;12.806;2023-11-19T05:51:31;0.30;;;0.30;;
15704;SDS011;7952;48.396;12.806;2023-11-19T05:53:57;0.20;;;0.20;;
15704;SDS011;7952;48.396;12.806;2023-11-19T05:56:23;0.20;;;0.20;;
15704;SDS011;7952;48.396;12.806;2023-11-19T05:58:48;0.20;;;0.20;;
15704;SDS011;7952;48.396;12.806;2023-11-19T06:01:14;0.20;;;0.20;;
15704;SDS011;7952;48.396;12.806;2023-11-19T06:03:40;0.30;;;0.30;;
15704;SDS011;7952;48.396;12.806;2023-11-19T06:06:08;0.20;;;0.20;;
15704;SDS011;7952;48.396;12.806;2023-11-19T06:08:34;0.10;;;0.10;;
15704;SDS011;7952;48.396;12.806;2023-11-19T06:11:00;0.10;;;0.10;;
15704;SDS011;7952;48.396;12.806;2023-11-19T06:13:26;0.10;;;0.10;;
15704;SDS011;7952;48.396;12.806;2023-11-19T06:15:52;0.20;;;0.20;;
15704;SDS011;7952;48.396;12.806;2023-11-19T06:18:18;0.30;;;0.30;;
15704;SDS011;7952;48.396;12.806;2023-11-19T06:20:45;0.27;;;0.27;;
15704;SDS011;7952;48.396;12.806;2023-11-19T06:23:10;0.20;;;0.20;;
15704;SDS011;7952;48.396;12.806;2023-11-19T06:25:36;0.40;;;0.40;;
15704;SDS011;7952;48.396;12.806;2023-11-19T06:28:02;0.30;;;0.30;;
15704;SDS011;7952;48.396;12.806;2023-11-19T06:30:28;0.30;;;0.30;;
15704;SDS011;7952;48.396;12.806;2023-11-19T06:32:56;0.40;;;0.40;;
15704;SDS011;7952;48.396;12.806;2023-11-19T06:35:22;0.30;;;0.30;;
15704;SDS011;7952;48.396;12.806;2023-11-19T06:37:47;0.30;;;0.30;;
15704;SDS011;7952;48.396;12.806;2023-11-19T06:40:13;0.37;;;0.37;;
15704;SDS011;7952;48.396;12.806;2023-11-19T06:42:40;0.40;;;0.40;;
15704;SDS011;7952;48.396;12.806;2023-11-19T06:45:06;0.20;;;0.20;;
15704;SDS011;7952;48.396;12.806;2023-11-19T06:47:32;0.37;;;0.37;;
15704;SDS011;7952;48.396;12.806;2023-11-19T06:49:58;0.20;;;0.20;;
15704;SDS011;7952;48.396;12.806;2023-11-19T06:52:24;0.30;;;0.30;;
15704;SDS011;7952;48.396;12.806;2023-11-19T06:54:50;0.23;;;0.23;;
15704;SDS011;7952;48.396;12.806;2023-11-19T06:57:16;0.20;;;0.20;;
15704;SDS011;7952;48.396;12.806;2023-11-19T06:59:42;0.30;;;0.30;;
15704;SDS011;7952;48.396;12.806;2023-11-19T07:02:08;0.30;;;0.30;;
15704;SDS011;7952;48.396;12.806;2023-11-19T07:04:34;0.30;;;0.30;;
15704;SDS011;7952;48.396;12.806;2023-11-19T07:06:59;0.20;;;0.20;;
15704;SDS011;7952;48.396;12.806;2023-11-19T07:09:26;0.30;;;0.30;;
15704;SDS011;7952;48.396;12.806;2023-11-19T07:11:52;0.20;;;0.20;;
15704;SDS011;7952;48.396;12.806;2023-11-19T07:14:18;0.20;;;0.20;;
15704;SDS011;7952;48.396;12.806;2023-11-19T07:16:44;0.30;;;0.30;;
15704;SDS011;7952;48.396;12.806;2023-11-19T07:19:11;0.10;;;0.10;;
15704;SDS011;7952;48.396;12.806;2023-11-19T07:21:37;0.23;;;0.23;;
15704;SDS011;7952;48.396;12.806;2023-11-19T07:24:09;0.20;;;0.20;;
15704;SDS011;7952;48.396;12.806;2023-11-19T07:26:35;0.23;;;0.23;;
15704;SDS011;7952;48.396;12.806;2023-11-19T07:29:02;0.20;;;0.20;;
15704;SDS011;7952;48.396;12.806;2023-11-19T07:31:32;0.40;;;0.40;;
15704;SDS011;7952;48.396;12.806;2023-11-19T07:33:58;0.20;;;0.20;;
15704;SDS011;7952;48.396;12.806;2023-11-19T07:36:24;0.20;;;0.20;;
15704;SDS011;7952;48.396;12.806;2023-11-19T07:38:49;0.30;;;0.30;;
15704;SDS011;7952;48.396;12.806;2023-11-19T07:41:15;0.30;;;0.30;;
15704;SDS011;7952;48.396;12.806;2023-11-19T07:43:44;0.20;;;0.20;;
15704;SDS011;7952;48.396;12.806;2023-11-19T07:46:11;0.20;;;0.20;;
15704;SDS011;7952;48.396;12.806;2023-11-19T07:48:38;0.28;;;0.28;;
15704;SDS011;7952;48.396;12.806;2023-11-19T07:51:07;0.20;;;0.20;;
15704;SDS011;7952;48.396;12.806;2023-11-19T07:53:33;0.40;;;0.40;;
15704;SDS011;7952;48.396;12.806;2023-11-19T07:55:59;0.22;;;0.22;;
15704;SDS011;7952;48.396;12.806;2023-11-19T07:58:26;0.17;;;0.17;;
15704;SDS011;7952;48.396;12.806;2023-11-19T08:00:51;0.30;;;0.30;;
15704;SDS011;7952;48.396;12.806;2023-11-19T08:03:17;0.10;;;0.10;;
15704;SDS011;7952;48.396;12.806;2023-11-19T08:05:49;0.28;;;0.28;;
15704;SDS011;7952;48.396;12.806;2023-11-19T08:08:15;0.20;;;0.20;;
15704;SDS011;7952;48.396;12.806;2023-11-19T08:10:42;0.30;;;0.30;;
15704;SDS011;7952;48.396;12.806;2023-11-19T08:13:09;0.25;;;0.25;;
15704;SDS011;7952;48.396;12.806;2023-11-19T08:15:36;0.10;;;0.10;;
15704;SDS011;7952;48.396;12.806;2023-11-19T08:18:02;0.40;;;0.40;;
15704;SDS011;7952;48.396;12.806;2023-11-19T08:20:28;0.25;;;0.25;;
15704;SDS011;7952;48.396;12.806;2023-11-19T08:22:53;0.20;;;0.20;;
15704;SDS011;7952;48.396;12.806;2023-11-19T08:25:19;0.10;;;0.10;;
15704;SDS011;7952;48.396;12.806;2023-11-19T08:27:45;0.30;;;0.30;;
15704;SDS011;7952;48.396;12.806;2023-11-19T08:30:12;0.38;;;0.38;;
15704;SDS011;7952;48.396;12.806;2023-11-19T08:32:38;0.20;;;0.20;;
15704;SDS011;7952;48.396;12.806;2023-11-19T08:35:04;1.17;;;1.13;;
15704;SDS011;7952;48.396;12.806;2023-11-19T08:37:30;1.35;;;1.35;;
15704;SDS011;7952;48.396;12.806;2023-11-19T08:39:56;2.50;;;2.40;;
15704;SDS011;7952;48.396;12.806;2023-11-19T08:42:22;1.58;;;1.48;;
15704;SDS011;7952;48.396;12.806;2023-11-19T08:44:51;0.75;;;0.75;;
15704;SDS011;7952;48.396;12.806;2023-11-19T08:47:19;0.63;;;0.63;;
15704;SDS011;7952;48.396;12.806;2023-11-19T08:49:45;0.75;;;0.75;;
15704;SDS011;7952;48.396;12.806;2023-11-19T08:52:11;0.85;;;0.82;;
15704;SDS011;7952;48.396;12.806;2023-11-19T08:54:37;0.70;;;0.70;;
15704;SDS011;7952;48.396;12.806;2023-11-19T08:57:03;1.40;;;1.05;;
15704;SDS011;7952;48.396;12.806;2023-11-19T08:59:29;0.70;;;0.70;;
15704;SDS011;7952;48.396;12.806;2023-11-19T09:01:55;1.25;;;1.23;;
15704;SDS011;7952;48.396;12.806;2023-11-19T09:04:21;1.35;;;1.33;;
15704;SDS011;7952;48.396;12.806;2023-11-19T09:06:49;0.88;;;0.88;;
15704;SDS011;7952;48.396;12.806;2023-11-19T09:09:15;1.83;;;1.42;;
15704;SDS011;7952;48.396;12.806;2023-11-19T09:11:41;0.85;;;0.85;;
15704;SDS011;7952;48.396;12.806;2023-11-19T09:14:07;0.75;;;0.75;;
15704;SDS011;7952;48.396;12.806;2023-11-19T09:16:33;1.15;;;1.15;;
15704;SDS011;7952;48.396;12.806;2023-11-19T09:18:59;0.55;;;0.55;;
15704;SDS011;7952;48.396;12.806;2023-11-19T09:21:26;1.05;;;1.05;;
15704;SDS011;7952;48.396;12.806;2023-11-19T09:23:51;0.80;;;0.80;;
15704;SDS011;7952;48.396;12.806;2023-11-19T09:26:19;1.20;;;1.20;;
15704;SDS011;7952;48.396;12.806;2023-11-19T09:28:44;0.95;;;0.95;;
15704;SDS011;7952;48.396;12.806;2023-11-19T09:31:14;0.55;;;0.55;;
15704;SDS011;7952;48.396;12.806;2023-11-19T09:33:43;0.73;;;0.73;;
15704;SDS011;7952;48.396;12.806;2023-11-19T09:36:11;1.00;;;1.00;;
15704;SDS011;7952;48.396;12.806;2023-11-19T09:38:39;0.52;;;0.52;;
15704;SDS011;7952;48.396;12.806;2023-11-19T09:41:07;0.75;;;0.75;;
15704;SDS011;7952;48.396;12.806;2023-11-19T09:47:13;1.05;;;1.05;;
15704;SDS011;7952;48.396;12.806;2023-11-19T09:49:41;0.73;;;0.73;;
15704;SDS011;7952;48.396;12.806;2023-11-19T09:52:07;0.32;;;0.32;;
15704;SDS011;7952;48.396;12.806;2023-11-19T09:54:33;1.65;;;1.52;;
15704;SDS011;7952;48.396;12.806;2023-11-19T09:56:58;1.27;;;1.27;;
15704;SDS011;7952;48.396;12.806;2023-11-19T09:59:29;0.90;;;0.90;;
15704;SDS011;7952;48.396;12.806;2023-11-19T10:01:56;0.63;;;0.60;;
15704;SDS011;7952;48.396;12.806;2023-11-19T10:04:22;0.50;;;0.40;;
15704;SDS011;7952;48.396;12.806;2023-11-19T10:06:49;0.70;;;0.70;;
15704;SDS011;7952;48.396;12.806;2023-11-19T10:09:16;0.52;;;0.43;;
15704;SDS011;7952;48.396;12.806;2023-11-19T10:11:42;0.82;;;0.82;;
15704;SDS011;7952;48.396;12.806;2023-11-19T10:14:08;0.60;;;0.60;;
15704;SDS011;7952;48.396;12.806;2023-11-19T10:16:34;0.75;;;0.75;;
15704;SDS011;7952;48.396;12.806;2023-11-19T10:19:00;0.30;;;0.30;;
15704;SDS011;7952;48.396;12.806;2023-11-19T10:21:26;1.52;;;0.82;;
15704;SDS011;7952;48.396;12.806;2023-11-19T10:23:56;0.55;;;0.55;;
15704;SDS011;7952;48.396;12.806;2023-11-19T10:26:24;0.60;;;0.60;;
15704;SDS011;7952;48.396;12.806;2023-11-19T10:28:51;0.93;;;0.90;;
15704;SDS011;7952;48.396;12.806;2023-11-19T10:31:17;0.50;;;0.50;;
15704;SDS011;7952;48.396;12.806;2023-11-19T10:33:44;0.38;;;0.38;;
15704;SDS011;7952;48.396;12.806;2023-11-19T10:36:13;0.10;;;0.10;;
15704;SDS011;7952;48.396;12.806;2023-11-19T10:38:39;0.20;;;0.20;;
15704;SDS011;7952;48.396;12.806;2023-11-19T10:41:06;0.20;;;0.20;;
15704;SDS011;7952;48.396;12.806;2023-11-19T10:43:42;0.35;;;0.35;;
15704;SDS011;7952;48.396;12.806;2023-11-19T10:46:13;0.05;;;0.05;;
15704;SDS011;7952;48.396;12.806;2023-11-19T10:48:39;0.50;;;0.50;;
15704;SDS011;7952;48.396;12.806;2023-11-19T10:51:06;0.40;;;0.40;;
15704;SDS011;7952;48.396;12.806;2023-11-19T10:53:36;0.52;;;0.52;;
15704;SDS011;7952;48.396;12.806;2023-11-19T10:56:04;0.60;;;0.60;;
15704;SDS011;7952;48.396;12.806;2023-11-19T10:58:35;0.30;;;0.30;;
15704;SDS011;7952;48.396;12.806;2023-11-19T11:01:07;0.30;;;0.30;;
15704;SDS011;7952;48.396;12.806;2023-11-19T11:03:39;0.40;;;0.40;;
15704;SDS011;7952;48.396;12.806;2023-11-19T11:06:05;0.28;;;0.28;;
15704;SDS011;7952;48.396;12.806;2023-11-19T11:08:31;0.10;;;0.10;;
15704;SDS011;7952;48.396;12.806;2023-11-19T11:11:01;0.68;;;0.25;;
15704;SDS011;7952;48.396;12.806;2023-11-19T11:13:29;0.43;;;0.43;;
15704;SDS011;7952;48.396;12.806;2023-11-19T11:15:56;0.75;;;0.75;;
15704;SDS011;7952;48.396;12.806;2023-11-19T11:18:23;0.30;;;0.30;;
15704;SDS011;7952;48.396;12.806;2023-11-19T11:20:51;0.13;;;0.13;;
15704;SDS011;7952;48.396;12.806;2023-11-19T11:34:54;0.50;;;0.50;;
15704;SDS011;7952;48.396;12.806;2023-11-19T11:37:26;0.40;;;0.40;;
15704;SDS011;7952;48.396;12.806;2023-11-19T11:39:57;0.50;;;0.50;;
15704;SDS011;7952;48.396;12.806;2023-11-19T11:42:31;0.55;;;0.55;;
15704;SDS011;7952;48.396;12.806;2023-11-19T11:44:57;0.47;;;0.47;;
15704;SDS011;7952;48.396;12.806;2023-11-19T11:48:15;0.40;;;0.40;;
15704;SDS011;7952;48.396;12.806;2023-11-19T11:50:22;0.05;;;0.05;;
15704;SDS011;7952;48.396;12.806;2023-11-19T11:55:27;0.43;;;0.43;;
15704;SDS011;7952;48.396;12.806;2023-11-19T11:58:13;0.20;;;0.20;;
15704;SDS011;7952;48.396;12.806;2023-11-19T12:01:03;0.10;;;0.10;;
15704;SDS011;7952;48.396;12.806;2023-11-19T12:03:33;0.40;;;0.40;;
15704;SDS011;7952;48.396;12.806;2023-11-19T12:05:59;0.60;;;0.60;;
15704;SDS011;7952;48.396;12.806;2023-11-19T12:08:26;0.22;;;0.22;;
15704;SDS011;7952;48.396;12.806;2023-11-19T12:10:54;0.30;;;0.30;;
15704;SDS011;7952;48.396;12.806;2023-11-19T12:13:23;0.10;;;0.10;;
15704;SDS011;7952;48.396;12.806;2023-11-19T12:18:26;0.50;;;0.50;;
15704;SDS011;7952;48.396;12.806;2023-11-19T12:20:52;0.20;;;0.20;;
15704;SDS011;7952;48.396;12.806;2023-11-19T12:23:19;0.20;;;0.20;;
15704;SDS011;7952;48.396;12.806;2023-11-19T12:25:45;0.10;;;0.10;;
15704;SDS011;7952;48.396;12.806;2023-11-19T12:28:17;0.20;;;0.20;;
15704;SDS011;7952;48.396;12.806;2023-11-19T12:30:44;0.10;;;0.10;;
15704;SDS011;7952;48.396;12.806;2023-11-19T12:33:13;0.30;;;0.30;;
15704;SDS011;7952;48.396;12.806;2023-11-19T12:35:46;0.20;;;0.20;;
15704;SDS011;7952;48.396;12.806;2023-11-19T12:38:22;0.22;;;0.22;;
15704;SDS011;7952;48.396;12.806;2023-11-19T12:41:04;0.20;;;0.20;;
15704;SDS011;7952;48.396;12.806;2023-11-19T12:43:38;0.10;;;0.10;;
15704;SDS011;7952;48.396;12.806;2023-11-19T12:46:28;0.20;;;0.20;;
15704;SDS011;7952;48.396;12.806;2023-11-19T12:48:53;0.20;;;0.20;;
15704;SDS011;7952;48.396;12.806;2023-11-19T12:51:19;0.10;;;0.10;;
15704;SDS011;7952;48.396;12.806;2023-11-19T12:53:52;0.73;;;0.65;;
15704;SDS011;7952;48.396;12.806;2023-11-19T12:56:22;0.63;;;0.63;;
15704;SDS011;7952;48.396;12.806;2023-11-19T12:58:49;0.30;;;0.30;;
15704;SDS011;7952;48.396;12.806;2023-11-19T13:01:19;0.20;;;0.20;;
15704;SDS011;7952;48.396;12.806;2023-11-19T13:03:45;0.20;;;0.20;;
15704;SDS011;7952;48.396;12.806;2023-11-19T13:06:13;0.10;;;0.10;;
15704;SDS011;7952;48.396;12.806;2023-11-19T13:08:46;0.20;;;0.20;;
15704;SDS011;7952;48.396;12.806;2023-11-19T13:11:15;0.10;;;0.10;;
15704;SDS011;7952;48.396;12.806;2023-11-19T13:16:26;0.25;;;0.25;;
15704;SDS011;7952;48.396;12.806;2023-11-19T13:18:53;0.20;;;0.20;;
15704;SDS011;7952;48.396;12.806;2023-11-19T13:21:18;0.30;;;0.30;;
15704;SDS011;7952;48.396;12.806;2023-11-19T13:23:44;0.15;;;0.15;;
15704;SDS011;7952;48.396;12.806;2023-11-19T13:26:10;0.20;;;0.20;;
15704;SDS011;7952;48.396;12.806;2023-11-19T13:28:37;0.10;;;0.10;;
15704;SDS011;7952;48.396;12.806;2023-11-19T13:31:03;0.20;;;0.20;;
15704;SDS011;7952;48.396;12.806;2023-11-19T13:33:29;0.10;;;0.10;;
15704;SDS011;7952;48.396;12.806;2023-11-19T13:35:55;0.20;;;0.20;;
15704;SDS011;7952;48.396;12.806;2023-11-19T13:38:22;0.10;;;0.10;;
15704;SDS011;7952;48.396;12.806;2023-11-19T13:40:51;0.10;;;0.10;;
15704;SDS011;7952;48.396;12.806;2023-11-19T13:43:16;0.10;;;0.10;;
15704;SDS011;7952;48.396;12.806;2023-11-19T13:45:42;0.10;;;0.10;;
15704;SDS011;7952;48.396;12.806;2023-11-19T13:48:08;0.30;;;0.30;;
15704;SDS011;7952;48.396;12.806;2023-11-19T13:50:34;0.22;;;0.22;;
15704;SDS011;7952;48.396;12.806;2023-11-19T13:53:00;0.25;;;0.25;;
15704;SDS011;7952;48.396;12.806;2023-11-19T13:55:26;0.10;;;0.10;;
15704;SDS011;7952;48.396;12.806;2023-11-19T13:57:52;0.20;;;0.20;;
15704;SDS011;7952;48.396;12.806;2023-11-19T14:00:18;0.10;;;0.10;;
15704;SDS011;7952;48.396;12.806;2023-11-19T14:02:48;0.10;;;0.10;;
15704;SDS011;7952;48.396;12.806;2023-11-19T14:05:14;0.22;;;0.22;;
15704;SDS011;7952;48.396;12.806;2023-11-19T14:07:42;0.98;;;0.38;;
15704;SDS011;7952;48.396;12.806;2023-11-19T14:10:09;0.13;;;0.13;;
15704;SDS011;7952;48.396;12.806;2023-11-19T14:12:36;0.60;;;0.30;;
15704;SDS011;7952;48.396;12.806;2023-11-19T14:15:03;0.17;;;0.17;;
15704;SDS011;7952;48.396;12.806;2023-11-19T14:17:33;0.13;;;0.13;;
15704;SDS011;7952;48.396;12.806;2023-11-19T14:19:59;0.03;;;0.03;;
15704;SDS011;7952;48.396;12.806;2023-11-19T14:22:25;0.20;;;0.20;;
15704;SDS011;7952;48.396;12.806;2023-11-19T14:24:51;0.20;;;0.20;;
15704;SDS011;7952;48.396;12.806;2023-11-19T14:27:16;0.22;;;0.22;;
15704;SDS011;7952;48.396;12.806;2023-11-19T14:29:43;0.20;;;0.20;;
15704;SDS011;7952;48.396;12.806;2023-11-19T14:32:10;0.68;;;0.68;;
15704;SDS011;7952;48.396;12.806;2023-11-19T14:34:36;0.40;;;0.40;;
15704;SDS011;7952;48.396;12.806;2023-11-19T14:37:02;0.30;;;0.30;;
15704;SDS011;7952;48.396;12.806;2023-11-19T14:39:28;0.10;;;0.10;;
15704;SDS011;7952;48.396;12.806;2023-11-19T14:41:56;0.30;;;0.30;;
15704;SDS011;7952;48.396;12.806;2023-11-19T14:44:26;0.20;;;0.20;;
15704;SDS011;7952;48.396;12.806;2023-11-19T14:46:52;0.32;;;0.32;;
15704;SDS011;7952;48.396;12.806;2023-11-19T14:49:18;0.35;;;0.35;;
15704;SDS011;7952;48.396;12.806;2023-11-19T14:51:43;0.10;;;0.10;;
15704;SDS011;7952;48.396;12.806;2023-11-19T14:54:09;0.47;;;0.47;;
15704;SDS011;7952;48.396;12.806;2023-11-19T14:56:35;0.10;;;0.10;;
15704;SDS011;7952;48.396;12.806;2023-11-19T14:59:00;0.17;;;0.17;;
15704;SDS011;7952;48.396;12.806;2023-11-19T15:01:26;0.20;;;0.20;;
15704;SDS011;7952;48.396;12.806;2023-11-19T15:03:54;0.20;;;0.20;;
15704;SDS011;7952;48.396;12.806;2023-11-19T15:06:23;0.20;;;0.20;;
15704;SDS011;7952;48.396;12.806;2023-11-19T15:08:51;0.28;;;0.28;;
15704;SDS011;7952;48.396;12.806;2023-11-19T15:11:18;0.38;;;0.38;;